createdAt,value
2022-12-09T00:01:18.171Z,39.90
2022-12-09T00:03:56.225Z,37.90
2022-12-09T00:06:31.303Z,36.40
2022-12-09T00:09:05.812Z,39.20
2022-12-09T00:11:38.145Z,40.40
2022-12-09T00:14:12.576Z,40.10
2022-12-09T00:16:44.870Z,38.90
2022-12-09T00:19:18.808Z,38.10
2022-12-09T00:21:51.200Z,37.90
2022-12-09T00:24:23.032Z,32.00
2022-12-09T00:26:56.035Z,31.10
2022-12-09T00:29:30.667Z,29.70
2022-12-09T00:32:03.708Z,33.80
2022-12-09T00:34:36.284Z,30.60
2022-12-09T00:37:09.079Z,33.30
2022-12-09T00:39:41.229Z,31.40
2022-12-09T00:42:13.434Z,32.10
2022-12-09T00:44:45.372Z,33.50
2022-12-09T00:47:17.488Z,30.90
2022-12-09T00:49:49.546Z,30.60
2022-12-09T00:52:21.764Z,32.70
2022-12-09T00:54:53.847Z,34.20
2022-12-09T00:57:28.329Z,32.40
2022-12-09T01:00:01.926Z,35.60
2022-12-09T01:02:35.490Z,33.20
2022-12-09T01:05:10.087Z,35.00
2022-12-09T01:07:43.815Z,34.10
2022-12-09T01:10:18.282Z,34.10
2022-12-09T01:12:51.064Z,35.00
2022-12-09T01:15:23.364Z,35.60
2022-12-09T01:17:56.211Z,33.80
2022-12-09T01:20:29.546Z,33.90
2022-12-09T01:23:04.540Z,35.20
2022-12-09T01:25:39.349Z,35.80
2022-12-09T01:28:12.608Z,35.30
2022-12-09T01:30:45.216Z,35.80
2022-12-09T01:33:17.008Z,34.10
2022-12-09T01:35:52.066Z,35.40
2022-12-09T01:38:27.156Z,38.40
2022-12-09T01:40:59.324Z,38.50
2022-12-09T01:43:32.402Z,39.90
2022-12-09T01:46:06.995Z,38.30
2022-12-09T01:48:41.744Z,37.30
2022-12-09T01:51:20.025Z,39.30
2022-12-09T01:53:53.611Z,38.30
2022-12-09T01:56:28.626Z,35.80
2022-12-09T01:59:07.260Z,35.30
2022-12-09T02:01:42.376Z,36.00
2022-12-09T02:04:17.025Z,34.60
2022-12-09T02:06:49.640Z,35.00
2022-12-09T02:09:22.335Z,35.00
2022-12-09T02:12:04.614Z,35.50
2022-12-09T02:14:43.009Z,35.00
2022-12-09T02:17:28.743Z,37.00
2022-12-09T02:20:07.771Z,36.10
2022-12-09T02:22:44.020Z,36.40
2022-12-09T02:25:25.969Z,35.70
2022-12-09T02:28:11.860Z,30.90
2022-12-09T02:30:50.350Z,26.60
2022-12-09T02:33:32.318Z,27.40
2022-12-09T02:36:09.304Z,26.00
2022-12-09T02:38:46.858Z,26.80
2022-12-09T02:41:23.249Z,27.70
2022-12-09T02:44:00.411Z,27.00
2022-12-09T02:46:33.788Z,27.20
2022-12-09T02:49:08.029Z,28.00
2022-12-09T02:51:42.419Z,28.40
2022-12-09T02:54:17.757Z,28.60
2022-12-09T02:56:57.815Z,28.00
2022-12-09T02:59:32.305Z,26.00
2022-12-09T03:02:14.024Z,25.10
2022-12-09T03:04:49.798Z,25.70
2022-12-09T03:07:30.975Z,27.10
2022-12-09T03:10:08.650Z,24.10
2022-12-09T03:12:43.365Z,25.80
2022-12-09T03:15:17.108Z,23.60
2022-12-09T03:17:50.085Z,23.10
2022-12-09T03:20:26.469Z,22.80
2022-12-09T03:23:05.780Z,23.60
2022-12-09T03:25:43.909Z,23.20
2022-12-09T03:28:21.909Z,22.10
2022-12-09T03:30:54.798Z,21.60
2022-12-09T03:33:30.720Z,20.10
2022-12-09T03:36:06.903Z,20.50
2022-12-09T03:38:40.955Z,20.20
2022-12-09T03:41:18.721Z,21.00
2022-12-09T03:43:54.950Z,22.70
2022-12-09T03:46:29.286Z,22.70
2022-12-09T03:49:03.040Z,21.90
2022-12-09T03:51:39.799Z,24.10
2022-12-09T03:54:17.340Z,24.50
2022-12-09T03:56:57.002Z,25.50
2022-12-09T03:59:32.903Z,25.60
2022-12-09T04:02:07.849Z,26.40
2022-12-09T04:04:43.510Z,27.40
2022-12-09T04:07:18.150Z,27.60
2022-12-09T04:09:51.367Z,28.10
2022-12-09T04:12:23.638Z,27.90
2022-12-09T04:14:57.688Z,26.10
2022-12-09T04:17:29.868Z,26.10
2022-12-09T04:20:04.832Z,25.90
2022-12-09T04:22:39.296Z,24.30
2022-12-09T04:25:15.771Z,27.10
2022-12-09T04:27:52.882Z,27.40
2022-12-09T04:30:27.142Z,31.10
2022-12-09T04:33:00.338Z,28.70
2022-12-09T04:35:37.032Z,31.40
2022-12-09T04:38:08.987Z,32.00
2022-12-09T04:40:42.245Z,31.10
2022-12-09T04:43:19.183Z,30.00
2022-12-09T04:45:51.718Z,28.50
2022-12-09T04:48:24.270Z,27.80
2022-12-09T04:50:56.161Z,27.80
2022-12-09T04:53:29.842Z,27.70
2022-12-09T04:56:06.751Z,28.30
2022-12-09T04:58:39.079Z,29.10
2022-12-09T05:01:14.535Z,29.90
2022-12-09T05:03:51.994Z,31.20
2022-12-09T05:06:26.866Z,32.30
2022-12-09T05:09:01.305Z,35.70
2022-12-09T05:11:36.048Z,34.90
2022-12-09T05:14:09.566Z,35.50
2022-12-09T05:16:42.740Z,35.80
2022-12-09T05:19:17.998Z,34.80
2022-12-09T05:21:50.845Z,37.00
2022-12-09T05:24:24.870Z,37.00
2022-12-09T05:26:57.082Z,33.30
2022-12-09T05:29:32.037Z,34.30
2022-12-09T05:32:05.086Z,35.30
2022-12-09T05:34:39.600Z,34.60
2022-12-09T05:37:16.624Z,34.80
2022-12-09T05:39:52.628Z,35.80
2022-12-09T05:42:27.531Z,34.70
2022-12-09T05:45:00.426Z,35.00
2022-12-09T05:47:35.387Z,35.50
2022-12-09T05:50:10.439Z,37.40
2022-12-09T05:52:43.967Z,38.70
2022-12-09T05:55:17.045Z,38.40
2022-12-09T05:57:51.067Z,40.40
2022-12-09T06:00:25.730Z,40.50
2022-12-09T06:02:59.271Z,39.10
2022-12-09T06:05:35.657Z,45.00
2022-12-09T06:08:09.908Z,43.40
2022-12-09T06:10:43.441Z,43.40
2022-12-09T06:13:17.080Z,46.00
2022-12-09T06:15:52.007Z,43.70
2022-12-09T06:18:26.124Z,45.80
2022-12-09T06:20:59.799Z,45.30
2022-12-09T06:23:34.321Z,44.40
2022-12-09T06:26:10.477Z,48.40
2022-12-09T06:28:45.072Z,50.20
2022-12-09T06:31:19.076Z,49.10
2022-12-09T06:33:55.300Z,55.60
2022-12-09T06:36:33.880Z,52.90
2022-12-09T06:39:10.521Z,56.90
2022-12-09T06:41:44.999Z,56.50
2022-12-09T06:44:23.474Z,57.80
2022-12-09T06:46:57.698Z,58.30
2022-12-09T06:49:30.103Z,56.20
2022-12-09T06:52:04.497Z,65.30
2022-12-09T06:54:40.869Z,86.20
2022-12-09T06:57:15.108Z,68.30
2022-12-09T06:59:48.178Z,75.30
2022-12-09T07:02:20.771Z,72.30
2022-12-09T07:04:56.768Z,74.60
2022-12-09T07:07:30.574Z,66.70
2022-12-09T07:10:08.104Z,66.20
2022-12-09T07:12:41.275Z,65.80
2022-12-09T07:15:16.429Z,60.00
2022-12-09T07:17:49.003Z,60.40
2022-12-09T07:20:22.349Z,61.90
2022-12-09T07:22:58.694Z,60.80
2022-12-09T07:25:31.947Z,62.10
2022-12-09T07:28:04.427Z,63.80
2022-12-09T07:30:38.622Z,64.70
2022-12-09T07:33:12.379Z,62.90
2022-12-09T07:35:44.788Z,68.00
2022-12-09T07:38:19.439Z,71.50
2022-12-09T07:40:54.221Z,78.20
2022-12-09T07:43:26.528Z,68.60
2022-12-09T07:45:58.824Z,69.90
2022-12-09T07:48:31.972Z,66.60
2022-12-09T07:51:05.682Z,70.70
2022-12-09T07:53:41.277Z,68.30
2022-12-09T07:56:16.335Z,66.80
2022-12-09T07:58:51.309Z,66.80
2022-12-09T08:01:25.987Z,69.10
2022-12-09T08:04:01.478Z,63.70
2022-12-09T08:06:35.843Z,72.00
2022-12-09T08:09:12.415Z,67.50
2022-12-09T08:11:44.623Z,64.20
2022-12-09T08:14:17.611Z,64.60
2022-12-09T08:16:49.930Z,64.50
2022-12-09T08:19:24.581Z,61.60
2022-12-09T08:21:59.165Z,63.20
2022-12-09T08:24:32.693Z,57.60
2022-12-09T08:27:06.057Z,57.60
2022-12-09T08:29:40.191Z,57.40
2022-12-09T08:32:15.055Z,55.70
2022-12-09T08:34:48.380Z,55.20
2022-12-09T08:37:21.702Z,54.20
2022-12-09T08:39:55.248Z,54.30
2022-12-09T08:42:30.679Z,52.40
2022-12-09T08:45:06.671Z,54.40
2022-12-09T08:47:39.568Z,53.40
2022-12-09T08:50:14.446Z,54.30
2022-12-09T08:52:46.670Z,53.40
2022-12-09T08:55:18.965Z,53.70
2022-12-09T08:57:53.989Z,54.10
2022-12-09T09:00:27.865Z,51.70
2022-12-09T09:03:01.235Z,57.30
2022-12-09T09:05:35.181Z,53.60
2022-12-09T09:08:11.147Z,50.40
2022-12-09T09:10:44.101Z,48.40
2022-12-09T09:13:19.610Z,46.40
2022-12-09T09:15:52.632Z,47.50
2022-12-09T09:18:26.382Z,49.40
2022-12-09T09:20:59.753Z,49.60
2022-12-09T09:23:33.290Z,49.20
2022-12-09T09:26:07.011Z,51.70
2022-12-09T09:28:39.949Z,51.50
2022-12-09T09:31:16.661Z,49.60
2022-12-09T09:33:49.915Z,39.90
2022-12-09T09:36:25.076Z,40.20
2022-12-09T09:39:00.278Z,42.00
2022-12-09T09:41:46.334Z,43.80
2022-12-09T09:44:25.602Z,44.00
2022-12-09T09:47:01.238Z,43.20
2022-12-09T09:49:41.395Z,42.60
2022-12-09T09:52:19.084Z,40.30
2022-12-09T09:54:51.979Z,38.10
2022-12-09T09:57:31.546Z,41.10
2022-12-09T10:00:19.638Z,38.00
2022-12-09T10:03:00.984Z,36.40
2022-12-09T10:05:36.032Z,38.90
2022-12-09T10:08:33.682Z,43.90
2022-12-09T10:11:18.925Z,43.40
2022-12-09T10:14:00.448Z,41.30
2022-12-09T10:16:37.989Z,39.50
2022-12-09T10:19:18.957Z,46.30
2022-12-09T10:21:55.425Z,47.20
2022-12-09T10:24:39.301Z,39.30
2022-12-09T10:27:19.999Z,37.00
2022-12-09T10:29:57.828Z,37.60
2022-12-09T10:32:33.757Z,36.30
2022-12-09T10:35:16.983Z,38.30
2022-12-09T10:37:52.509Z,37.60
2022-12-09T10:40:37.093Z,37.60
2022-12-09T10:43:38.643Z,34.60
2022-12-09T10:46:19.251Z,35.30
2022-12-09T10:49:03.366Z,34.70
2022-12-09T10:51:39.694Z,33.00
2022-12-09T10:54:29.025Z,32.10
2022-12-09T10:57:25.094Z,32.80
2022-12-09T11:00:07.939Z,31.50
2022-12-09T11:02:53.079Z,31.00
2022-12-09T11:05:30.332Z,28.90
2022-12-09T11:08:05.181Z,30.00
2022-12-09T11:10:40.021Z,31.50
2022-12-09T11:13:21.053Z,34.00
2022-12-09T11:15:59.652Z,31.90
2022-12-09T11:18:37.992Z,31.80
2022-12-09T11:21:31.717Z,30.10
2022-12-09T11:24:06.882Z,31.00
2022-12-09T11:26:43.297Z,31.10
2022-12-09T11:29:19.692Z,34.30
2022-12-09T11:31:56.310Z,37.90
2022-12-09T11:34:29.063Z,36.10
2022-12-09T11:37:02.851Z,32.10
2022-12-09T11:39:36.464Z,35.90
2022-12-09T11:42:18.840Z,35.60
2022-12-09T11:44:58.026Z,37.30
2022-12-09T11:47:57.331Z,37.70
2022-12-09T11:50:31.710Z,37.40
2022-12-09T11:53:25.436Z,37.90
2022-12-09T11:56:03.301Z,34.20
2022-12-09T11:58:40.587Z,32.10
2022-12-09T12:01:16.772Z,30.40
2022-12-09T12:03:54.027Z,29.70
2022-12-09T12:06:28.728Z,24.80
2022-12-09T12:09:07.136Z,25.20
2022-12-09T12:11:43.273Z,26.80
2022-12-09T12:14:24.675Z,29.20
2022-12-09T12:17:05.122Z,28.60
2022-12-09T12:19:40.215Z,27.80
2022-12-09T12:22:26.719Z,22.70
2022-12-09T12:25:17.780Z,24.70
2022-12-09T12:28:14.302Z,25.80
2022-12-09T12:30:54.278Z,24.30
2022-12-09T12:34:07.917Z,33.20
2022-12-09T12:36:39.577Z,35.10
2022-12-09T12:39:20.438Z,40.90
2022-12-09T12:42:01.415Z,41.90
2022-12-09T12:45:11.575Z,42.10
2022-12-09T12:47:48.548Z,36.50
2022-12-09T12:50:39.897Z,43.50
2022-12-09T12:53:19.254Z,41.00
2022-12-09T12:55:58.531Z,36.00
2022-12-09T12:58:44.336Z,34.50
2022-12-09T13:01:30.274Z,36.70
2022-12-09T13:04:18.878Z,37.40
2022-12-09T13:06:54.267Z,35.50
2022-12-09T13:09:30.705Z,36.90
2022-12-09T13:12:11.548Z,36.20
2022-12-09T13:14:52.249Z,38.80
2022-12-09T13:17:28.546Z,33.20
2022-12-09T13:20:02.938Z,35.50
2022-12-09T13:22:41.957Z,39.20
2022-12-09T13:25:26.132Z,36.30
2022-12-09T13:28:02.292Z,35.80
2022-12-09T13:30:39.555Z,29.80
2022-12-09T13:33:30.803Z,27.50
2022-12-09T13:36:06.589Z,31.40
2022-12-09T13:38:42.411Z,35.60
2022-12-09T13:41:59.704Z,38.30
2022-12-09T13:44:36.232Z,41.00
2022-12-09T13:47:29.470Z,48.20
2022-12-09T13:50:06.838Z,47.90
2022-12-09T13:52:46.187Z,49.50
2022-12-09T13:55:32.934Z,38.10
2022-12-09T13:58:27.016Z,39.60
2022-12-09T14:01:07.719Z,44.70
2022-12-09T14:03:41.587Z,44.90
2022-12-09T14:06:23.627Z,46.00
2022-12-09T14:08:58.537Z,37.80
2022-12-09T14:11:49.504Z,36.80
2022-12-09T14:15:02.036Z,37.10
2022-12-09T14:18:04.567Z,37.20
2022-12-09T14:20:40.459Z,35.70
2022-12-09T14:23:19.180Z,25.60
2022-12-09T14:26:09.944Z,33.30
2022-12-09T14:28:57.153Z,35.00
2022-12-09T14:31:59.905Z,29.50
2022-12-09T14:34:42.081Z,27.80
2022-12-09T14:37:52.212Z,28.90
2022-12-09T14:40:35.632Z,26.20
2022-12-09T14:43:22.326Z,23.80
2022-12-09T14:45:58.062Z,26.50
2022-12-09T14:48:34.350Z,30.00
2022-12-09T14:51:16.244Z,23.50
2022-12-09T14:53:53.384Z,25.30
2022-12-09T14:56:28.554Z,24.30
2022-12-09T14:59:04.823Z,24.70
2022-12-09T15:01:53.124Z,21.40
2022-12-09T15:04:34.303Z,23.00
2022-12-09T15:07:21.107Z,25.20
2022-12-09T15:09:58.327Z,26.10
2022-12-09T15:12:34.233Z,26.10
2022-12-09T15:15:13.836Z,31.10
2022-12-09T15:17:49.816Z,32.50
2022-12-09T15:20:27.394Z,37.40
2022-12-09T15:23:03.988Z,34.90
2022-12-09T15:25:38.379Z,33.60
2022-12-09T15:28:21.440Z,33.90
2022-12-09T15:31:00.296Z,27.80
2022-12-09T15:33:41.388Z,26.70
2022-12-09T15:36:16.048Z,26.30
2022-12-09T15:38:51.310Z,28.30
2022-12-09T15:41:41.731Z,31.90
2022-12-09T15:44:18.910Z,22.30
2022-12-09T15:46:53.644Z,24.90
2022-12-09T15:49:27.554Z,24.60
2022-12-09T15:52:00.217Z,23.30
2022-12-09T15:54:35.880Z,23.90
2022-12-09T15:57:10.259Z,23.70
2022-12-09T15:59:49.723Z,22.90
2022-12-09T16:02:29.880Z,21.90
2022-12-09T16:05:05.795Z,20.60
2022-12-09T16:07:39.550Z,17.70
2022-12-09T16:10:17.525Z,18.00
2022-12-09T16:13:09.948Z,18.40
2022-12-09T16:15:54.423Z,19.20
2022-12-09T16:18:30.196Z,20.20
2022-12-09T16:21:27.739Z,22.80
2022-12-09T16:24:14.077Z,24.60
2022-12-09T16:26:51.157Z,26.30
2022-12-09T16:29:27.412Z,29.30
2022-12-09T16:32:23.504Z,31.10
2022-12-09T16:34:57.655Z,35.20
2022-12-09T16:37:40.025Z,37.40
2022-12-09T16:40:48.625Z,31.80
2022-12-09T16:43:26.248Z,43.50
2022-12-09T16:45:59.886Z,46.50
2022-12-09T16:48:33.264Z,42.40
2022-12-09T16:51:14.459Z,49.50
2022-12-09T16:53:50.925Z,47.30
2022-12-09T16:56:26.141Z,46.90
2022-12-09T16:58:59.343Z,49.50
2022-12-09T17:01:37.144Z,40.60
2022-12-09T17:04:16.291Z,48.80
2022-12-09T17:06:49.031Z,51.80
2022-12-09T17:09:21.815Z,45.50
2022-12-09T17:11:54.309Z,49.20
2022-12-09T17:14:28.959Z,50.90
2022-12-09T17:17:04.011Z,46.20
2022-12-09T17:19:38.580Z,43.20
2022-12-09T17:22:11.133Z,46.60
2022-12-09T17:24:44.784Z,44.60
2022-12-09T17:27:18.249Z,44.80
2022-12-09T17:29:51.039Z,40.20
2022-12-09T17:32:23.615Z,43.00
2022-12-09T17:34:58.182Z,46.80
2022-12-09T17:37:31.027Z,47.70
2022-12-09T17:40:04.728Z,47.60
2022-12-09T17:42:37.881Z,48.70
2022-12-09T17:45:12.144Z,47.70
2022-12-09T17:47:44.176Z,50.80
2022-12-09T17:50:17.293Z,39.10
2022-12-09T17:52:49.909Z,41.90
2022-12-09T17:55:22.197Z,41.20
2022-12-09T17:57:57.821Z,45.90
2022-12-09T18:00:30.754Z,61.70
2022-12-09T18:03:05.358Z,64.70
2022-12-09T18:05:41.371Z,61.10
2022-12-09T18:08:15.865Z,53.80
2022-12-09T18:10:52.185Z,69.80
2022-12-09T18:13:24.295Z,73.80
2022-12-09T18:15:57.663Z,58.80
2022-12-09T18:18:31.515Z,51.20
2022-12-09T18:21:10.603Z,54.30
2022-12-09T18:23:48.322Z,58.60
2022-12-09T18:26:25.752Z,67.80
2022-12-09T18:29:00.945Z,59.20
2022-12-09T18:31:36.884Z,70.70
2022-12-09T18:34:09.872Z,69.30
2022-12-09T18:36:43.453Z,59.50
2022-12-09T18:39:19.298Z,50.90
2022-12-09T18:41:51.719Z,56.80
2022-12-09T18:44:27.223Z,59.70
2022-12-09T18:47:00.810Z,57.40
2022-12-09T18:49:37.479Z,54.30
2022-12-09T18:52:10.557Z,65.50
2022-12-09T18:54:42.857Z,64.30
2022-12-09T18:57:15.091Z,57.80
2022-12-09T18:59:49.035Z,71.10
2022-12-09T19:02:21.738Z,66.90
2022-12-09T19:04:54.676Z,55.40
2022-12-09T19:07:32.075Z,58.90
2022-12-09T19:10:06.679Z,46.80
2022-12-09T19:12:49.730Z,66.70
2022-12-09T19:15:23.973Z,59.40
2022-12-09T19:17:57.537Z,55.90
2022-12-09T19:20:32.654Z,51.40
2022-12-09T19:23:06.052Z,53.30
2022-12-09T19:25:43.082Z,61.40
2022-12-09T19:28:17.545Z,60.00
2022-12-09T19:30:51.050Z,56.80
2022-12-09T19:33:25.056Z,48.90
2022-12-09T19:35:57.212Z,46.70
2022-12-09T19:38:33.057Z,47.80
2022-12-09T19:41:07.449Z,51.00
2022-12-09T19:43:42.256Z,45.20
2022-12-09T19:46:15.914Z,48.00
2022-12-09T19:48:51.392Z,48.90
2022-12-09T19:51:26.095Z,45.80
2022-12-09T19:54:00.838Z,46.50
2022-12-09T19:56:35.496Z,44.20
2022-12-09T19:59:10.211Z,49.60
2022-12-09T20:01:45.540Z,45.40
2022-12-09T20:04:47.649Z,38.40
2022-12-09T20:07:13.165Z,46.10
2022-12-09T20:09:46.465Z,43.30
2022-12-09T20:12:18.543Z,51.40
2022-12-09T20:14:52.326Z,37.00
2022-12-09T20:17:24.506Z,36.40
2022-12-09T20:19:58.115Z,45.50
2022-12-09T20:22:32.225Z,52.20
2022-12-09T20:25:06.424Z,47.40
2022-12-09T20:27:39.581Z,46.60
2022-12-09T20:30:19.550Z,65.10
2022-12-09T20:32:52.266Z,59.60
2022-12-09T20:35:24.713Z,56.00
2022-12-09T20:37:56.802Z,53.40
2022-12-09T20:40:28.957Z,61.70
2022-12-09T20:43:02.056Z,78.20
2022-12-09T20:45:36.882Z,65.80
2022-12-09T20:48:10.291Z,61.70
2022-12-09T20:50:43.153Z,49.80
2022-12-09T20:53:17.477Z,48.80
2022-12-09T20:55:59.576Z,44.00
2022-12-09T20:58:34.720Z,53.00
2022-12-09T21:01:13.290Z,51.20
2022-12-09T21:03:48.394Z,52.00
2022-12-09T21:06:23.340Z,51.50
2022-12-09T21:08:58.361Z,50.40
2022-12-09T21:11:33.177Z,50.60
2022-12-09T21:14:09.025Z,50.80
2022-12-09T21:16:42.769Z,49.60
2022-12-09T21:19:20.205Z,43.50
2022-12-09T21:21:55.748Z,41.30
2022-12-09T21:24:28.789Z,42.90
2022-12-09T21:27:03.080Z,40.60
2022-12-09T21:29:36.986Z,42.50
2022-12-09T21:32:09.396Z,48.10
2022-12-09T21:34:44.261Z,49.50
2022-12-09T21:37:19.119Z,49.10
2022-12-09T21:39:53.950Z,46.80
2022-12-09T21:42:28.893Z,45.40
2022-12-09T21:45:04.400Z,49.40
2022-12-09T21:47:39.455Z,52.20
2022-12-09T21:50:15.046Z,42.90
2022-12-09T21:52:47.713Z,44.60
2022-12-09T21:55:19.794Z,45.40
2022-12-09T21:57:53.950Z,47.70
2022-12-09T22:00:27.058Z,49.80
2022-12-09T22:02:59.423Z,52.40
2022-12-09T22:05:32.207Z,51.00
2022-12-09T22:08:05.079Z,46.30
2022-12-09T22:10:40.489Z,43.60
2022-12-09T22:13:13.211Z,48.70
2022-12-09T22:15:46.305Z,45.40
2022-12-09T22:18:19.713Z,42.90
2022-12-09T22:21:23.548Z,43.20
2022-12-09T22:23:46.789Z,43.10
2022-12-09T22:26:21.235Z,42.80
2022-12-09T22:28:54.917Z,45.20
2022-12-09T22:31:28.287Z,42.00
2022-12-09T22:34:03.143Z,35.90
2022-12-09T22:36:38.504Z,37.30
2022-12-09T22:39:14.020Z,34.70
2022-12-09T22:41:46.484Z,35.80
2022-12-09T22:44:20.271Z,38.30
2022-12-09T22:46:54.047Z,33.20
2022-12-09T22:49:26.968Z,29.80
2022-12-09T22:52:00.927Z,27.40
2022-12-09T22:54:33.501Z,27.80
2022-12-09T22:57:07.087Z,31.40
2022-12-09T22:59:42.950Z,30.50
2022-12-09T23:02:16.507Z,28.40
2022-12-09T23:04:51.291Z,28.10
2022-12-09T23:07:24.821Z,30.80
2022-12-09T23:09:57.362Z,32.10
2022-12-09T23:12:31.442Z,28.90
2022-12-09T23:15:03.278Z,27.80
2022-12-09T23:17:37.246Z,26.20
2022-12-09T23:20:12.315Z,23.70
2022-12-09T23:22:44.973Z,24.40
2022-12-09T23:25:17.451Z,24.20
2022-12-09T23:27:51.936Z,24.60
2022-12-09T23:30:24.504Z,23.20
2022-12-09T23:32:57.001Z,27.20
2022-12-09T23:35:29.186Z,28.70
2022-12-09T23:38:01.023Z,30.00
2022-12-09T23:40:36.656Z,26.20
2022-12-09T23:43:09.879Z,21.60
2022-12-09T23:45:42.939Z,26.50
2022-12-09T23:48:19.741Z,29.20
2022-12-09T23:50:52.435Z,28.90
2022-12-09T23:53:24.666Z,30.30
2022-12-09T23:55:56.777Z,30.70
2022-12-09T23:58:30.952Z,28.90
